New Lisbon, Wisconsin
Current Conditions -  °F | °C
As of 1:58 AM on Thursday 18 Dec 2014 (Local Time) from KVOK Reporting Station
Overcast Overcast  
Wind Chill: 13°   Ceiling: 1900
Heat Index: 20°   Visibility: 10mi
Dew Point: 19°   Wind: 5mph
Humidity: 95%   Direction: 310°NW
Pressure: 30.28"   Gusts: NA
Location:  43.88°N, 90.17°W
Report Text: KVOK 180758Z AUTO 31004KT 10SM OVC019 M07/M07 A3028 RMK AO2 SLP273 T10671074
Loading
Personal Weather Stations






























Interactive Weather Map New forecast layout! Learn more

10-Day Weather Forecast

Advertisements
Track Severe Weather on mobile